Time;durP1;ratioP1;P1;durP2;ratioP2;P2;SDS_P1;SDS_P2;PMS_P1;PMS_P2;Temp;Humidity;BMP_temperature;BMP_pressure;BME280_temperature;BME280_humidity;BME280_pressure;Samples;Min_cycle;Max_cycle;Signal;HPM_P1;HPM_P2
2021/07/18 00:01:55;;;;;;;3.67;1.65;;;;;;;22.17;61.39;102426.31;5015090;28;20286;-63
2021/07/18 00:04:20;;;;;;;3.83;1.67;;;;;;;22.19;61.19;102435.03;5014823;28;20034;-62
2021/07/18 00:06:45;;;;;;;3.80;1.60;;;;;;;22.21;60.99;102434.91;5014286;28;20056;-62
2021/07/18 00:09:11;;;;;;;3.25;1.45;;;;;;;22.19;61.31;102434.16;5014858;28;20473;-62
2021/07/18 00:11:36;;;;;;;4.65;1.65;;;;;;;22.20;61.23;102434.06;5014814;28;20092;-62
2021/07/18 00:14:03;;;;;;;3.67;1.60;;;;;;;22.20;61.28;102436.69;5014390;28;20533;-62
2021/07/18 00:16:28;;;;;;;4.70;1.70;;;;;;;22.20;60.99;102433.22;5014447;28;20032;-62
2021/07/18 00:18:53;;;;;;;3.67;1.80;;;;;;;22.20;61.07;102428.75;5014594;28;20105;-63
2021/07/18 00:21:22;;;;;;;3.20;1.65;;;;;;;22.19;60.99;102424.41;5013591;28;20276;-62
2021/07/18 00:23:47;;;;;;;3.42;2.03;;;;;;;22.18;60.99;102425.34;5014534;28;20022;-62
2021/07/18 00:26:12;;;;;;;3.47;1.67;;;;;;;22.19;60.95;102423.53;5014761;28;20124;-62
2021/07/18 00:28:38;;;;;;;4.43;1.65;;;;;;;22.18;61.33;102420.06;5013735;28;20112;-62
2021/07/18 00:31:03;;;;;;;3.25;1.50;;;;;;;22.18;61.25;102419.22;5014597;28;20502;-63
2021/07/18 00:33:29;;;;;;;4.00;1.63;;;;;;;22.17;60.81;102423.66;5014357;28;20113;-63
2021/07/18 00:35:57;;;;;;;3.40;1.50;;;;;;;22.15;61.02;102420.28;5014173;28;20025;-62
2021/07/18 00:38:22;;;;;;;4.00;1.70;;;;;;;22.17;60.95;102418.34;5014284;28;20539;-62
2021/07/18 00:40:49;;;;;;;3.33;1.80;;;;;;;22.16;60.84;102421.97;5014634;28;20030;-63
2021/07/18 00:43:15;;;;;;;4.57;1.52;;;;;;;22.15;60.83;102425.59;5013662;28;20263;-63
2021/07/18 00:45:40;;;;;;;3.85;1.80;;;;;;;22.17;61.05;102420.16;5014520;28;20041;-62
2021/07/18 00:48:07;;;;;;;3.67;1.73;;;;;;;22.16;61.20;102426.41;5013200;28;20099;-62
2021/07/18 00:50:32;;;;;;;4.57;2.10;;;;;;;22.15;60.99;102422.09;5013476;28;20026;-62
2021/07/18 00:52:57;;;;;;;4.18;1.67;;;;;;;22.15;61.00;102416.78;5014259;28;20025;-62
2021/07/18 00:55:22;;;;;;;3.00;1.77;;;;;;;22.14;60.78;102415.91;5013162;28;20088;-62
2021/07/18 00:57:50;;;;;;;3.43;1.80;;;;;;;22.14;60.71;102420.38;5014387;28;20302;-62
2021/07/18 01:00:17;;;;;;;2.92;1.60;;;;;;;22.13;61.01;102419.56;5014003;28;20697;-62
2021/07/18 01:02:42;;;;;;;3.17;1.70;;;;;;;22.13;60.64;102422.19;5013282;28;20064;-62
2021/07/18 01:05:10;;;;;;;4.88;1.80;;;;;;;22.13;60.77;102422.19;5013998;28;20061;-62
2021/07/18 01:07:35;;;;;;;3.50;1.80;;;;;;;22.12;60.68;102415.19;5013688;28;20026;-62
2021/07/18 01:10:04;;;;;;;3.35;1.42;;;;;;;22.11;60.86;102410.81;5013284;28;20026;-63
2021/07/18 01:12:29;;;;;;;4.00;1.80;;;;;;;22.10;60.65;102412.66;5013537;28;20021;-62
2021/07/18 01:14:57;;;;;;;3.88;1.98;;;;;;;22.09;60.84;102420.72;5013942;28;20108;-61
2021/07/18 01:17:23;;;;;;;3.95;1.77;;;;;;;22.11;60.60;102418.78;5012684;28;20517;-62
2021/07/18 01:19:48;;;;;;;3.83;1.90;;;;;;;22.11;60.55;102421.44;5013573;28;20026;-62
2021/07/18 01:22:13;;;;;;;3.55;1.90;;;;;;;22.09;60.61;102415.41;5013663;28;20074;-62
2021/07/18 01:24:39;;;;;;;3.63;1.77;;;;;;;22.09;60.71;102408.28;5013149;28;20048;-62
2021/07/18 01:27:05;;;;;;;4.40;1.92;;;;;;;22.08;60.78;102409.25;5013823;28;20025;-62
2021/07/18 01:29:35;;;;;;;3.63;1.70;;;;;;;22.09;60.99;102410.94;5013486;28;20022;-62
2021/07/18 01:32:02;;;;;;;4.30;1.75;;;;;;;22.08;60.76;102408.44;5012873;28;20025;-62
2021/07/18 01:34:27;;;;;;;3.10;1.80;;;;;;;22.07;60.72;102404.06;5013246;28;20026;-62
2021/07/18 01:36:59;;;;;;;4.13;1.83;;;;;;;22.08;60.42;102406.59;5013471;28;20044;-62
2021/07/18 01:39:27;;;;;;;3.63;2.00;;;;;;;22.06;60.42;102400.56;5012502;28;20493;-62
2021/07/18 01:41:55;;;;;;;3.65;2.13;;;;;;;22.05;60.53;102396.22;5013506;28;20076;-62
2021/07/18 01:44:23;;;;;;;4.50;2.10;;;;;;;22.07;60.81;102401.41;5013336;28;20030;-62
2021/07/18 01:46:49;;;;;;;4.00;2.03;;;;;;;22.06;60.78;102400.56;5012710;28;20025;-62
2021/07/18 01:49:15;;;;;;;3.85;1.90;;;;;;;22.07;60.78;102388.13;5012873;28;20057;-62
2021/07/18 01:51:40;;;;;;;3.83;1.85;;;;;;;22.02;60.56;102388.47;5012363;28;20034;-61
2021/07/18 01:54:10;;;;;;;3.03;1.73;;;;;;;22.07;60.65;102390.78;5013382;28;20080;-62
2021/07/18 01:56:35;;;;;;;3.42;1.80;;;;;;;22.07;60.60;102399.59;5012862;28;20462;-62
2021/07/18 01:59:01;;;;;;;3.75;2.10;;;;;;;22.05;60.37;102396.22;5012368;28;20032;-61
2021/07/18 02:01:28;;;;;;;4.32;1.92;;;;;;;22.05;60.83;102385.59;5012401;28;20022;-62
2021/07/18 02:03:55;;;;;;;5.25;1.95;;;;;;;22.06;60.44;102397.06;5012917;28;20347;-62
2021/07/18 02:06:25;;;;;;;4.53;1.88;;;;;;;22.05;60.26;102390.06;5012115;28;20080;-62
2021/07/18 02:08:56;;;;;;;3.83;2.13;;;;;;;22.05;60.56;102395.38;5013222;28;20393;-63
2021/07/18 02:11:22;;;;;;;3.95;2.08;;;;;;;22.04;60.44;102383.06;5012685;28;20022;-61
2021/07/18 02:13:49;;;;;;;3.55;1.90;;;;;;;22.04;60.57;102378.59;5012162;28;20068;-62
2021/07/18 02:16:15;;;;;;;5.07;1.90;;;;;;;22.02;60.56;102375.19;5012715;28;20113;-61
2021/07/18 02:18:42;;;;;;;4.40;1.98;;;;;;;22.03;60.58;102371.59;5012736;28;20050;-62
2021/07/18 02:21:08;;;;;;;3.80;1.98;;;;;;;22.03;60.32;102379.56;5012261;28;20026;-61
2021/07/18 02:23:33;;;;;;;3.70;2.00;;;;;;;22.03;60.45;102376.03;5012450;28;20382;-62
2021/07/18 02:25:59;;;;;;;4.18;2.20;;;;;;;22.02;60.26;102375.19;5012893;28;20029;-62
2021/07/18 02:28:24;;;;;;;4.55;1.83;;;;;;;21.98;60.29;102371.06;5011579;28;20022;-62
2021/07/18 02:30:52;;;;;;;5.25;2.20;;;;;;;22.01;60.34;102367.34;5012667;28;20036;-62
2021/07/18 02:33:18;;;;;;;3.95;2.10;;;;;;;21.93;60.07;102359.94;5012167;28;20033;-62
2021/07/18 02:35:43;;;;;;;5.57;2.30;;;;;;;22.01;60.35;102376.16;5012035;28;20030;-62
2021/07/18 02:38:10;;;;;;;4.63;1.85;;;;;;;22.01;60.19;102368.19;5012715;28;20434;-62
2021/07/18 02:40:35;;;;;;;3.67;1.98;;;;;;;22.00;60.22;102374.47;5012439;28;20026;-62
2021/07/18 02:43:00;;;;;;;3.72;2.13;;;;;;;21.99;60.18;102374.59;5011848;28;20383;-62
2021/07/18 02:45:26;;;;;;;4.38;2.08;;;;;;;22.00;60.03;102370.94;5012305;28;20457;-62
2021/07/18 02:47:52;;;;;;;4.47;2.30;;;;;;;21.99;60.21;102369.28;5012012;28;20561;-62
2021/07/18 02:50:22;;;;;;;4.20;2.30;;;;;;;21.98;60.27;102368.41;5012094;28;20430;-63
2021/07/18 02:52:48;;;;;;;4.40;2.50;;;;;;;21.99;59.98;102371.94;5012712;28;20021;-62
2021/07/18 02:55:14;;;;;;;3.58;1.65;;;;;;;21.99;60.03;102369.28;5011519;28;20141;-62
2021/07/18 02:57:40;;;;;;;3.83;2.10;;;;;;;21.98;60.08;102365.75;5012500;28;20030;-62
2021/07/18 03:00:09;;;;;;;4.47;2.13;;;;;;;21.97;60.28;102369.41;5012303;28;20022;-62
2021/07/18 03:02:35;;;;;;;4.43;2.03;;;;;;;21.90;60.10;102369.00;5010592;28;20042;-62
2021/07/18 03:05:01;;;;;;;4.75;2.28;;;;;;;21.94;59.75;102366.97;5012288;28;20029;-62
2021/07/18 03:07:26;;;;;;;3.05;1.83;;;;;;;21.94;60.04;102364.31;5012125;28;20057;-62
2021/07/18 03:09:52;;;;;;;4.35;2.45;;;;;;;21.95;60.36;102368.63;5011633;28;20064;-62
2021/07/18 03:12:17;;;;;;;3.92;2.35;;;;;;;21.96;60.02;102373.00;5014848;28;20110;-62
2021/07/18 03:14:42;;;;;;;3.97;2.33;;;;;;;21.94;59.96;102377.59;5016095;28;20041;-62
2021/07/18 03:17:08;;;;;;;4.03;2.50;;;;;;;21.96;59.88;102375.66;5015627;28;20674;-62
2021/07/18 03:19:33;;;;;;;4.38;2.03;;;;;;;21.93;59.91;102371.41;5016021;28;20358;-62
2021/07/18 03:21:58;;;;;;;4.63;2.10;;;;;;;21.95;59.97;102376.59;5015966;28;20081;-62
2021/07/18 03:24:24;;;;;;;4.53;2.05;;;;;;;21.95;60.05;102367.81;5015031;28;20021;-62
2021/07/18 03:26:49;;;;;;;3.92;2.00;;;;;;;21.94;59.73;102369.63;5015980;28;20061;-62
2021/07/18 03:29:14;;;;;;;3.97;2.00;;;;;;;21.93;59.68;102363.44;5015599;28;20393;-63
2021/07/18 03:31:39;;;;;;;3.50;1.90;;;;;;;21.93;59.52;102374.06;5015332;28;20282;-62
2021/07/18 03:34:07;;;;;;;3.97;2.10;;;;;;;21.93;59.68;102373.22;5016022;28;20283;-62
2021/07/18 03:36:33;;;;;;;3.70;2.00;;;;;;;21.92;59.67;102367.06;5015677;28;20076;-63
2021/07/18 03:39:00;;;;;;;4.30;2.50;;;;;;;21.92;60.00;102375.03;5015163;28;20433;-63
2021/07/18 03:41:26;;;;;;;4.18;2.30;;;;;;;21.92;59.75;102364.41;5015389;28;20052;-61
2021/07/18 03:43:54;;;;;;;4.45;2.20;;;;;;;21.91;59.71;102368.03;5015481;28;20546;-61
2021/07/18 03:46:19;;;;;;;4.05;2.20;;;;;;;21.92;59.82;102376.81;5014483;28;20064;-62
2021/07/18 03:48:44;;;;;;;5.60;2.90;;;;;;;21.91;59.57;102376.00;5015418;28;20069;-63
2021/07/18 03:51:10;;;;;;;4.30;2.20;;;;;;;21.89;59.61;102380.56;5015477;28;20030;-63
2021/07/18 03:53:35;;;;;;;4.40;2.50;;;;;;;21.90;59.63;102373.44;5014968;28;20271;-63
2021/07/18 03:56:07;;;;;;;3.97;2.17;;;;;;;21.87;59.59;102374.53;5015425;28;20026;-62
2021/07/18 03:58:32;;;;;;;4.40;2.22;;;;;;;21.89;59.73;102377.09;5014307;28;20432;-62
2021/07/18 04:00:58;;;;;;;5.03;2.40;;;;;;;21.90;59.57;102381.41;5015564;28;20026;-62
2021/07/18 04:03:23;;;;;;;3.80;2.05;;;;;;;21.88;59.62;102378.03;5015181;28;20275;-62
2021/07/18 04:05:48;;;;;;;5.30;2.38;;;;;;;21.89;59.67;102377.09;5014741;28;20029;-61
2021/07/18 04:08:15;;;;;;;4.00;2.20;;;;;;;21.88;59.65;102384.16;5015184;28;20026;-62
2021/07/18 04:10:42;;;;;;;4.97;2.60;;;;;;;21.88;59.55;102381.53;5014987;28;20030;-63
2021/07/18 04:13:08;;;;;;;3.97;1.95;;;;;;;21.88;59.57;102378.88;5013763;28;20038;-63
2021/07/18 04:15:33;;;;;;;4.30;2.47;;;;;;;21.88;59.48;102384.16;5014758;28;20341;-62
2021/07/18 04:18:06;;;;;;;4.10;2.30;;;;;;;21.88;59.57;102383.34;5015106;28;20026;-63
2021/07/18 04:20:34;;;;;;;5.22;2.03;;;;;;;21.89;59.71;102385.03;5013918;28;20270;-62
2021/07/18 04:22:59;;;;;;;5.47;2.38;;;;;;;21.88;59.63;102389.47;5014355;28;20021;-62
2021/07/18 04:25:24;;;;;;;4.35;2.60;;;;;;;21.88;59.34;102391.28;5014424;28;20447;-62
2021/07/18 04:27:49;;;;;;;4.87;2.40;;;;;;;21.87;59.50;102382.50;5013833;28;20030;-62
2021/07/18 04:30:15;;;;;;;3.67;2.23;;;;;;;21.88;59.20;102384.16;5014467;28;20033;-62
2021/07/18 04:32:40;;;;;;;4.70;2.40;;;;;;;21.87;59.29;102377.19;5014901;28;20278;-63
2021/07/18 04:35:08;;;;;;;4.65;2.53;;;;;;;21.87;59.35;102376.31;5013963;28;20426;-62
2021/07/18 04:37:38;;;;;;;4.28;2.20;;;;;;;21.88;59.20;102381.53;5014297;28;20029;-63
2021/07/18 04:40:07;;;;;;;4.07;2.30;;;;;;;21.86;59.35;102382.59;5014555;28;20104;-62
2021/07/18 04:42:33;;;;;;;4.25;2.13;;;;;;;21.88;59.41;102378.03;5013290;28;20113;-62
2021/07/18 04:44:58;;;;;;;4.78;2.40;;;;;;;21.88;59.40;102380.69;5014672;28;20497;-61
2021/07/18 04:47:24;;;;;;;4.20;2.17;;;;;;;21.86;59.18;102383.44;5014087;28;20041;-63
2021/07/18 04:49:50;;;;;;;4.00;2.20;;;;;;;21.87;59.44;102385.16;5013558;28;20038;-62
2021/07/18 04:52:17;;;;;;;3.60;1.98;;;;;;;21.87;59.31;102384.28;5014151;28;20053;-62
2021/07/18 04:54:42;;;;;;;3.97;2.20;;;;;;;21.87;59.55;102385.16;5013611;28;20081;-63
2021/07/18 04:57:07;;;;;;;4.78;2.28;;;;;;;21.87;59.31;102389.59;5014149;28;20026;-63
2021/07/18 04:59:33;;;;;;;4.70;2.30;;;;;;;21.86;59.46;102388.75;5014114;28;20065;-62
2021/07/18 05:02:01;;;;;;;5.43;2.70;;;;;;;21.87;59.64;102392.25;5013528;28;20763;-62
2021/07/18 05:04:26;;;;;;;4.43;2.35;;;;;;;21.84;59.45;102392.47;5013842;28;20301;-62
2021/07/18 05:06:51;;;;;;;4.40;2.45;;;;;;;21.87;59.48;102392.25;5014134;28;20025;-62
2021/07/18 05:09:17;;;;;;;3.72;2.45;;;;;;;21.87;59.58;102393.13;5012963;28;20030;-61
2021/07/18 05:11:42;;;;;;;4.90;2.55;;;;;;;21.87;59.74;102394.91;5014116;28;20045;-62
2021/07/18 05:14:07;;;;;;;4.63;2.42;;;;;;;21.87;59.50;102389.59;5014097;28;20064;-62
2021/07/18 05:16:32;;;;;;;4.30;2.60;;;;;;;21.86;59.59;102380.78;5013040;28;20385;-62
2021/07/18 05:18:58;;;;;;;4.07;2.30;;;;;;;21.87;59.41;102384.28;5014030;28;20025;-63
2021/07/18 05:21:23;;;;;;;4.67;2.60;;;;;;;21.87;59.50;102390.47;5013734;28;20032;-63
2021/07/18 05:23:51;;;;;;;3.88;2.17;;;;;;;21.85;59.86;102394.19;5013231;28;20740;-62
2021/07/18 05:26:16;;;;;;;4.32;2.33;;;;;;;21.72;59.49;102365.88;5013310;28;20021;-62
2021/07/18 05:28:42;;;;;;;3.75;2.08;;;;;;;21.86;59.78;102388.75;5013753;28;20037;-63
2021/07/18 05:31:10;;;;;;;4.50;2.40;;;;;;;21.87;59.81;102390.47;5013274;28;20449;-63
2021/07/18 05:33:35;;;;;;;4.43;2.58;;;;;;;21.86;59.98;102391.41;5013233;28;20277;-63
2021/07/18 05:36:00;;;;;;;5.13;2.50;;;;;;;21.87;59.95;102401.06;5012746;28;20101;-62
2021/07/18 05:38:28;;;;;;;4.90;2.53;;;;;;;21.88;59.96;102391.28;5012599;28;20022;-62
2021/07/18 05:40:53;;;;;;;4.03;2.13;;;;;;;21.88;59.72;102391.28;5013323;28;20030;-61
2021/07/18 05:43:19;;;;;;;4.45;2.20;;;;;;;21.89;59.70;102393.00;5013494;28;20466;-62
2021/07/18 05:45:44;;;;;;;5.43;2.40;;;;;;;21.88;59.58;102391.28;5012689;28;20092;-63
2021/07/18 05:48:09;;;;;;;4.27;2.50;;;;;;;21.89;59.81;102398.31;5013032;28;20046;-62
2021/07/18 05:50:34;;;;;;;5.32;2.65;;;;;;;21.88;59.94;102386.81;5012931;28;20290;-62
2021/07/18 05:53:00;;;;;;;4.60;2.47;;;;;;;21.89;59.69;102393.84;5011985;28;20049;-62
2021/07/18 05:55:25;;;;;;;3.72;2.00;;;;;;;21.90;60.28;102399.97;5012814;28;20470;-62
2021/07/18 05:57:51;;;;;;;4.07;2.10;;;;;;;21.90;60.24;102398.19;5012457;28;20497;-63
2021/07/18 06:00:17;;;;;;;4.07;2.10;;;;;;;21.90;60.08;102402.63;5012995;28;20157;-62
2021/07/18 06:02:45;;;;;;;4.63;1.98;;;;;;;21.90;59.90;102399.97;5012910;28;20113;-62
2021/07/18 06:05:11;;;;;;;4.25;2.10;;;;;;;21.91;60.15;102396.38;5012200;28;20048;-62
2021/07/18 06:07:40;;;;;;;4.00;2.10;;;;;;;21.91;60.29;102402.53;5012686;28;20478;-61
2021/07/18 06:10:07;;;;;;;4.53;2.13;;;;;;;21.91;60.08;102396.38;5012746;28;20034;-62
2021/07/18 06:12:33;;;;;;;4.45;2.30;;;;;;;21.93;60.26;102402.41;5011676;28;20427;-62
2021/07/18 06:14:58;;;;;;;3.50;1.80;;;;;;;21.90;59.96;102395.53;5012862;28;20147;-62
2021/07/18 06:17:24;;;;;;;5.10;2.20;;;;;;;21.93;60.24;102397.09;5012392;28;20107;-63
2021/07/18 06:19:49;;;;;;;4.13;2.00;;;;;;;21.92;60.12;102392.75;5012119;28;20089;-62
2021/07/18 06:22:15;;;;;;;5.05;2.90;;;;;;;21.92;59.98;102393.63;5012384;28;20022;-61
2021/07/18 06:24:44;;;;;;;4.38;2.00;;;;;;;21.93;60.13;102397.09;5012911;28;20076;-61
2021/07/18 06:27:09;;;;;;;4.25;1.98;;;;;;;21.92;59.98;102390.09;5012110;28;20025;-64
2021/07/18 06:29:34;;;;;;;3.13;1.70;;;;;;;21.94;60.26;102390.84;5012324;28;20137;-66
2021/07/18 06:32:00;;;;;;;3.60;1.90;;;;;;;21.94;60.18;102390.84;5012646;28;20026;-66
2021/07/18 06:34:26;;;;;;;4.20;1.95;;;;;;;21.89;60.47;102385.88;5011476;28;20337;-66
2021/07/18 06:36:52;;;;;;;4.45;2.20;;;;;;;21.96;60.45;102394.22;5012451;28;20359;-65
2021/07/18 06:39:18;;;;;;;4.07;2.22;;;;;;;21.95;60.54;102391.69;5012456;28;20022;-65
2021/07/18 06:41:43;;;;;;;5.70;2.72;;;;;;;21.95;60.35;102394.34;5011889;28;20113;-64
2021/07/18 06:44:09;;;;;;;7.70;2.60;;;;;;;21.96;60.12;102396.06;5012588;28;20018;-68
2021/07/18 06:46:38;;;;;;;5.55;2.58;;;;;;;21.98;60.20;102396.78;5011672;28;20035;-68
2021/07/18 06:49:04;;;;;;;4.20;2.50;;;;;;;21.96;60.74;102396.06;5011578;28;20495;-67
2021/07/18 06:51:29;;;;;;;7.15;2.90;;;;;;;21.99;60.62;102396.66;5012062;28;20026;-66
2021/07/18 06:53:55;;;;;;;5.32;2.88;;;;;;;22.00;60.52;102393.06;5012437;28;20033;-68
2021/07/18 06:56:20;;;;;;;5.38;2.60;;;;;;;22.00;60.87;102400.16;5011392;28;20037;-68
2021/07/18 06:58:45;;;;;;;6.95;2.72;;;;;;;22.01;60.59;102404.50;5012185;28;20030;-69
2021/07/18 07:01:16;;;;;;;5.75;2.53;;;;;;;22.02;61.00;102407.06;5011524;28;20030;-68
2021/07/18 07:03:41;;;;;;;4.72;2.70;;;;;;;22.03;60.65;102407.91;5012103;28;20033;-66
2021/07/18 07:06:07;;;;;;;5.67;2.50;;;;;;;22.05;60.99;102398.03;5012000;28;20033;-66
2021/07/18 07:08:32;;;;;;;5.28;2.58;;;;;;;22.04;60.85;102399.81;5011402;28;20298;-65
2021/07/18 07:10:57;;;;;;;5.75;2.38;;;;;;;22.06;61.03;102402.38;5012382;28;20034;-68
2021/07/18 07:13:23;;;;;;;4.75;2.40;;;;;;;22.07;61.24;102401.41;5011939;28;20076;-63
2021/07/18 07:15:48;;;;;;;5.20;2.20;;;;;;;22.09;60.97;102395.00;5011455;28;20061;-65
2021/07/18 07:18:13;;;;;;;6.70;2.38;;;;;;;22.04;61.01;102394.50;5012105;28;20026;-64
2021/07/18 07:20:38;;;;;;;6.22;2.55;;;;;;;22.10;61.21;102391.41;5011672;28;20060;-64
2021/07/18 07:23:07;;;;;;;6.38;2.50;;;;;;;22.14;61.03;102392.00;5012291;28;20026;-65
2021/07/18 07:25:32;;;;;;;6.00;2.28;;;;;;;22.19;61.30;102395.19;5013506;28;20050;-65
2021/07/18 07:27:57;;;;;;;5.20;2.40;;;;;;;22.22;61.00;102394.97;5012632;28;20054;-64
2021/07/18 07:30:23;;;;;;;4.25;2.15;;;;;;;22.26;60.81;102400.91;5011950;28;20025;-64
2021/07/18 07:32:51;;;;;;;4.20;1.77;;;;;;;22.26;60.67;102406.19;5012301;28;20034;-64
2021/07/18 07:35:17;;;;;;;3.78;1.75;;;;;;;22.28;60.39;102401.63;5013108;28;20022;-64
2021/07/18 07:37:44;;;;;;;4.57;1.90;;;;;;;22.28;60.77;102388.34;5011638;28;20041;-65
2021/07/18 07:40:13;;;;;;;3.88;1.90;;;;;;;22.27;60.46;102383.97;5012113;28;20496;-64
2021/07/18 07:42:39;;;;;;;3.90;1.60;;;;;;;22.29;60.42;102390.03;5012047;28;20101;-65
2021/07/18 07:45:05;;;;;;;4.70;2.00;;;;;;;22.28;60.33;102388.34;5011093;28;20026;-64
2021/07/18 07:47:31;;;;;;;5.43;2.03;;;;;;;22.32;60.30;102389.84;5011415;28;20413;-65
2021/07/18 07:49:56;;;;;;;4.25;1.80;;;;;;;22.33;60.32;102385.38;5011737;28;20022;-65
2021/07/18 07:52:24;;;;;;;4.18;1.60;;;;;;;22.33;60.63;102394.19;5011040;28;20446;-64
2021/07/18 07:54:49;;;;;;;4.38;1.67;;;;;;;22.35;60.48;102402.91;5013367;28;20064;-66
2021/07/18 07:57:14;;;;;;;4.95;1.83;;;;;;;22.37;60.66;102400.97;5012312;28;20073;-65
2021/07/18 07:59:40;;;;;;;5.03;1.70;;;;;;;22.37;60.08;102393.00;5014914;28;20569;-65
2021/07/18 08:02:05;;;;;;;2.92;1.50;;;;;;;22.38;60.31;102394.69;5015305;28;20026;-64
2021/07/18 08:04:30;;;;;;;3.38;1.58;;;;;;;22.39;60.34;102390.22;5013845;28;20129;-65
2021/07/18 08:06:56;;;;;;;3.80;1.50;;;;;;;22.40;60.36;102382.16;5017764;28;20076;-64
2021/07/18 08:09:21;;;;;;;3.28;1.50;;;;;;;22.40;60.36;102387.44;5016085;28;20025;-66
2021/07/18 08:11:47;;;;;;;2.60;1.30;;;;;;;22.41;59.85;102378.53;5016146;28;20049;-65
2021/07/18 08:14:13;;;;;;;3.53;1.30;;;;;;;22.41;60.38;102382.97;5016461;28;20022;-66
2021/07/18 08:16:38;;;;;;;2.85;1.30;;;;;;;22.43;60.23;102384.56;5015546;28;20522;-66
2021/07/18 08:19:04;;;;;;;3.30;1.50;;;;;;;22.45;59.91;102379.97;5015131;28;20517;-64
2021/07/18 08:21:29;;;;;;;2.95;1.40;;;;;;;22.48;60.02;102384.22;5016162;28;20294;-67
2021/07/18 08:23:57;;;;;;;3.25;1.40;;;;;;;22.48;60.00;102375.38;5016211;28;20100;-65
2021/07/18 08:26:23;;;;;;;3.13;1.52;;;;;;;22.50;59.94;102378.78;5015431;28;20084;-65
2021/07/18 08:28:51;;;;;;;4.40;1.70;;;;;;;22.50;60.03;102382.28;5015318;28;20030;-65
2021/07/18 08:31:17;;;;;;;3.08;1.40;;;;;;;22.52;60.11;102379.50;5015214;28;20022;-63
2021/07/18 08:33:43;;;;;;;3.00;1.35;;;;;;;22.53;59.99;102378.56;5014569;28;20018;-67
2021/07/18 08:36:09;;;;;;;3.38;1.40;;;;;;;22.56;60.06;102378.34;5015112;28;20030;-64
2021/07/18 08:38:34;;;;;;;3.05;1.30;;;;;;;22.56;60.03;102376.50;5014942;28;20026;-65
2021/07/18 08:41:00;;;;;;;3.30;1.30;;;;;;;22.59;60.54;102367.47;5014483;28;20038;-63
2021/07/18 08:43:25;;;;;;;3.55;1.50;;;;;;;22.58;60.13;102371.09;5014991;28;20025;-65
2021/07/18 08:45:52;;;;;;;2.65;1.40;;;;;;;22.59;60.51;102373.63;5014833;28;20438;-64
2021/07/18 08:48:17;;;;;;;3.17;1.30;;;;;;;22.58;60.46;102374.56;5013476;28;20129;-63
2021/07/18 08:50:43;;;;;;;2.58;1.20;;;;;;;22.61;60.46;102366.38;5015304;28;20101;-67
2021/07/18 08:53:09;;;;;;;3.10;1.33;;;;;;;22.63;60.53;102366.25;5015810;28;20022;-65
2021/07/18 08:55:38;;;;;;;3.75;1.23;;;;;;;22.66;60.12;102373.16;5013791;28;20026;-68
2021/07/18 08:58:03;;;;;;;2.78;1.40;;;;;;;22.65;59.98;102372.28;5014518;28;20058;-65
2021/07/18 09:00:28;;;;;;;2.88;1.25;;;;;;;22.64;60.01;102370.63;5014025;28;20481;-68
2021/07/18 09:02:53;;;;;;;4.63;1.60;;;;;;;22.64;60.21;102368.78;5013552;28;20552;-63
2021/07/18 09:05:19;;;;;;;3.87;1.40;;;;;;;22.67;59.86;102369.50;5014042;28;20069;-65
2021/07/18 09:07:56;;;;;;;3.63;1.40;;;;;;;22.68;60.41;102369.41;5013561;28;20275;-65
2021/07/18 09:10:27;;;;;;;4.13;1.58;;;;;;;22.71;60.55;102368.31;5013739;28;20280;-64
2021/07/18 09:13:07;;;;;;;3.65;1.38;;;;;;;22.72;60.06;102375.34;5014328;28;20018;-68
2021/07/18 09:16:04;;;;;;;3.25;1.20;;;;;;;22.73;60.05;102367.25;5013113;28;20515;-62
2021/07/18 09:18:29;;;;;;;2.97;1.40;;;;;;;22.75;59.97;102369.78;4980619;28;20041;-65
2021/07/18 09:20:57;;;;;;;3.60;1.63;;;;;;;22.75;60.16;102364.47;5014240;28;20501;-63
2021/07/18 09:23:30;;;;;;;3.88;1.40;;;;;;;22.78;59.83;102366.88;5012798;28;20274;-62
2021/07/18 09:26:16;;;;;;;3.00;1.50;;;;;;;22.79;59.92;102374.72;5014511;28;20033;-63
2021/07/18 09:28:44;;;;;;;2.42;1.30;;;;;;;22.80;59.94;102370.28;5014828;28;20033;-65
2021/07/18 09:31:30;;;;;;;3.13;1.38;;;;;;;22.83;60.11;102381.50;5013624;28;20099;-64
2021/07/18 09:34:14;;;;;;;4.40;1.63;;;;;;;22.83;59.55;102372.69;5013744;28;20478;-68
2021/07/18 09:36:42;;;;;;;;;;;;;;;22.82;59.84;102371.84;5013261;28;20501;-66
2021/07/18 09:39:11;;;;;;;4.18;1.60;;;;;;;22.78;59.38;102359.75;5013683;28;19913;-66
2021/07/18 09:41:42;;;;;;;4.05;1.70;;;;;;;22.81;59.57;102363.97;5013200;28;20018;-65
2021/07/18 09:44:07;;;;;;;3.17;1.55;;;;;;;22.82;59.33;102365.69;5012812;28;20100;-62
2021/07/18 09:46:34;;;;;;;3.80;1.50;;;;;;;22.84;59.46;102363.75;5012992;28;20145;-62
2021/07/18 09:49:03;;;;;;;2.67;1.25;;;;;;;22.85;59.55;102368.09;5012653;28;20045;-63
2021/07/18 09:51:33;;;;;;;3.72;1.73;;;;;;;22.83;59.77;102362.06;5012589;28;20026;-63
2021/07/18 09:54:10;;;;;;;4.15;1.50;;;;;;;22.79;59.97;102349.97;5013448;28;20033;-62
2021/07/18 09:56:36;;;;;;;3.83;1.50;;;;;;;22.78;60.37;102348.25;5013094;28;20373;-62
2021/07/18 09:59:03;;;;;;;3.83;1.60;;;;;;;22.76;60.44;102352.88;5012366;28;20132;-63
2021/07/18 10:01:28;;;;;;;3.10;1.42;;;;;;;22.73;60.28;102353.97;5012974;28;20120;-66
2021/07/18 10:03:57;;;;;;;3.65;1.75;;;;;;;22.69;59.90;102344.53;5013433;28;20386;-65
2021/07/18 10:06:26;;;;;;;3.42;1.60;;;;;;;22.69;60.43;102346.34;5012425;28;20034;-68
2021/07/18 10:08:57;;;;;;;3.70;1.60;;;;;;;22.66;60.12;102347.41;5012578;28;20030;-66
2021/07/18 10:11:25;;;;;;;5.82;1.70;;;;;;;22.63;60.44;102340.53;5011670;28;20025;-66
2021/07/18 10:13:52;;;;;;;3.45;1.60;;;;;;;22.61;60.21;102331.81;5012414;28;20474;-66
2021/07/18 10:16:19;;;;;;;3.95;1.40;;;;;;;22.58;60.58;102326.75;5012742;28;20021;-66
2021/07/18 10:18:46;;;;;;;3.03;1.30;;;;;;;22.59;60.39;102333.75;5012100;28;20040;-66
2021/07/18 10:21:20;;;;;;;3.90;1.63;;;;;;;22.57;60.53;102330.41;5012264;28;20022;-67
2021/07/18 10:23:47;;;;;;;5.18;1.75;;;;;;;22.57;60.37;102330.41;5012791;28;20084;-66
2021/07/18 10:26:17;;;;;;;3.40;1.80;;;;;;;22.56;60.53;102322.53;5011976;28;20034;-65
2021/07/18 10:28:43;;;;;;;2.90;1.40;;;;;;;22.56;60.32;102326.03;5012886;28;20072;-67
2021/07/18 10:31:18;;;;;;;4.65;1.90;;;;;;;22.56;60.77;102320.72;5012768;28;20052;-66
2021/07/18 10:33:48;;;;;;;3.25;1.40;;;;;;;22.54;60.68;102327.09;5011923;28;20029;-67
2021/07/18 10:36:14;;;;;;;4.25;1.90;;;;;;;22.55;60.72;102324.31;5012743;28;20026;-65
2021/07/18 10:38:40;;;;;;;3.53;1.60;;;;;;;22.54;60.80;102330.63;5012541;28;20030;-66
2021/07/18 10:41:05;;;;;;;3.55;1.67;;;;;;;22.53;60.87;102325.44;5011700;28;20029;-66
2021/07/18 10:43:44;;;;;;;3.78;1.50;;;;;;;22.52;60.60;102316.59;5012487;28;20030;-65
2021/07/18 10:46:33;;;;;;;3.90;1.45;;;;;;;22.51;60.84;102314.91;5012076;28;20076;-65
2021/07/18 10:48:58;;;;;;;3.42;1.50;;;;;;;22.51;60.79;102312.25;5012230;28;20052;-68
2021/07/18 10:51:38;;;;;;;3.20;1.75;;;;;;;22.53;61.06;102323.59;5013222;28;20054;-68
2021/07/18 10:54:14;;;;;;;3.38;1.60;;;;;;;22.53;60.96;102312.97;5011940;28;20100;-65
2021/07/18 10:56:45;;;;;;;3.30;1.60;;;;;;;22.53;61.07;102312.97;5012761;28;20029;-68
2021/07/18 10:59:41;;;;;;;3.30;1.60;;;;;;;22.56;61.33;102314.56;5012713;28;20113;-69
2021/07/18 11:02:09;;;;;;;4.03;1.63;;;;;;;22.58;60.95;102318.78;5012309;28;20113;-63
2021/07/18 11:04:52;;;;;;;3.53;1.30;;;;;;;22.64;61.08;102310.34;5012276;28;20049;-61
2021/07/18 11:07:20;;;;;;;2.80;1.30;;;;;;;22.71;61.34;102315.19;5011491;28;20088;-66
2021/07/18 11:09:56;;;;;;;3.17;1.50;;;;;;;22.76;61.20;102316.50;5012317;28;20112;-65
2021/07/18 11:12:26;;;;;;;3.40;1.60;;;;;;;22.83;61.03;102320.38;5012196;28;20026;-64
2021/07/18 11:14:52;;;;;;;3.75;1.60;;;;;;;22.85;61.27;102327.41;5011721;28;20053;-65
2021/07/18 11:17:32;;;;;;;3.58;1.70;;;;;;;22.86;61.23;102310.47;5011907;28;20022;-62
2021/07/18 11:20:04;;;;;;;3.30;1.52;;;;;;;22.85;61.03;102312.28;5012370;28;20022;-63
2021/07/18 11:22:56;;;;;;;4.15;1.67;;;;;;;22.84;61.05;102299.94;5011261;28;20496;-63
2021/07/18 11:25:43;;;;;;;3.67;1.58;;;;;;;22.80;61.08;102303.84;5012002;28;20033;-64